createdAt,value
2023-02-09T00:00:27.428Z,5.18
2023-02-09T00:02:55.814Z,5.00
2023-02-09T00:05:25.462Z,5.07
2023-02-09T00:07:53.815Z,6.57
2023-02-09T00:10:22.412Z,6.88
2023-02-09T00:13:22.830Z,7.32
2023-02-09T00:15:51.537Z,5.77
2023-02-09T00:18:20.013Z,5.43
2023-02-09T00:20:57.066Z,5.22
2023-02-09T00:23:25.760Z,5.78
2023-02-09T00:25:54.351Z,6.75
2023-02-09T00:28:22.912Z,6.10
2023-02-09T00:30:53.314Z,7.53
2023-02-09T00:33:21.771Z,6.07
2023-02-09T00:35:51.233Z,5.78
2023-02-09T00:38:19.794Z,4.80
2023-02-09T00:40:49.985Z,5.07
2023-02-09T00:43:18.317Z,5.15
2023-02-09T00:45:46.912Z,5.15
2023-02-09T00:48:15.996Z,4.47
2023-02-09T00:50:44.570Z,4.50
2023-02-09T00:53:14.196Z,4.27
2023-02-09T00:55:42.840Z,4.10
2023-02-09T00:58:11.276Z,4.47
2023-02-09T01:00:39.612Z,4.40
2023-02-09T01:03:08.072Z,4.18
2023-02-09T01:05:36.493Z,4.33
2023-02-09T01:08:05.201Z,4.97
2023-02-09T01:10:34.794Z,4.40
2023-02-09T01:13:03.178Z,4.10
2023-02-09T01:15:31.585Z,3.90
2023-02-09T01:18:00.297Z,3.70
2023-02-09T01:20:29.238Z,4.43
2023-02-09T01:22:57.618Z,4.13
2023-02-09T01:25:25.999Z,4.45
2023-02-09T01:27:55.455Z,4.53
2023-02-09T01:30:25.381Z,4.20
2023-02-09T01:32:53.800Z,4.30
2023-02-09T01:35:22.261Z,4.68
2023-02-09T01:37:50.858Z,4.65
2023-02-09T01:40:19.188Z,4.40
2023-02-09T01:42:47.517Z,4.13
2023-02-09T01:45:25.718Z,4.50
2023-02-09T01:47:59.481Z,4.22
2023-02-09T01:50:29.548Z,4.53
2023-02-09T01:52:58.789Z,4.70
2023-02-09T01:55:33.372Z,4.70
2023-02-09T01:58:12.040Z,5.50
2023-02-09T02:00:41.612Z,4.70
2023-02-09T02:03:14.687Z,4.45
2023-02-09T02:05:46.862Z,4.50
2023-02-09T02:08:20.266Z,4.57
2023-02-09T02:10:48.878Z,4.63
2023-02-09T02:13:17.313Z,4.68
2023-02-09T02:15:59.087Z,4.65
2023-02-09T02:18:51.780Z,4.60
2023-02-09T02:21:47.235Z,4.57
2023-02-09T02:24:38.687Z,4.82
2023-02-09T02:27:09.466Z,4.95
2023-02-09T02:30:29.086Z,4.50
2023-02-09T02:33:07.679Z,4.63
2023-02-09T02:35:38.215Z,4.97
2023-02-09T02:38:16.381Z,4.63
2023-02-09T02:40:59.388Z,4.78
2023-02-09T02:43:41.049Z,5.20
2023-02-09T02:46:16.685Z,4.68
2023-02-09T02:48:51.774Z,4.33
2023-02-09T02:51:26.172Z,5.45
2023-02-09T02:53:57.949Z,4.90
2023-02-09T02:56:30.626Z,4.53
2023-02-09T02:59:02.035Z,4.75
2023-02-09T03:01:36.040Z,4.30
2023-02-09T03:04:08.341Z,4.47
2023-02-09T03:06:38.590Z,4.70
2023-02-09T03:09:07.130Z,4.82
2023-02-09T03:11:38.708Z,4.70
2023-02-09T03:14:16.545Z,5.03
2023-02-09T03:16:47.168Z,4.75
2023-02-09T03:19:26.607Z,5.13
2023-02-09T03:21:59.697Z,5.05
2023-02-09T03:24:40.531Z,4.55
2023-02-09T03:27:15.795Z,4.90
2023-02-09T03:29:46.611Z,4.38
2023-02-09T03:32:15.836Z,4.88
2023-02-09T03:34:45.862Z,5.00
2023-02-09T03:37:14.416Z,5.80
2023-02-09T03:39:43.129Z,4.57
2023-02-09T03:42:11.562Z,4.40
2023-02-09T03:44:39.915Z,4.93
2023-02-09T03:47:10.330Z,4.07
2023-02-09T03:49:40.613Z,5.47
2023-02-09T03:52:12.426Z,4.77
2023-02-09T03:54:41.066Z,4.45
2023-02-09T03:57:10.203Z,4.25
2023-02-09T03:59:39.676Z,4.18
2023-02-09T04:02:09.403Z,5.07
2023-02-09T04:04:38.025Z,4.20
2023-02-09T04:07:06.517Z,4.35
2023-02-09T04:09:37.967Z,4.47
2023-02-09T04:12:06.404Z,4.75
2023-02-09T04:14:34.770Z,4.28
2023-02-09T04:17:03.223Z,4.67
2023-02-09T04:19:31.599Z,4.78
2023-02-09T04:22:00.928Z,5.15
2023-02-09T04:24:29.365Z,5.22
2023-02-09T04:26:58.761Z,4.22
2023-02-09T04:29:27.203Z,5.00
2023-02-09T04:31:56.053Z,5.13
2023-02-09T04:34:25.093Z,5.80
2023-02-09T04:36:53.441Z,5.07
2023-02-09T04:39:21.783Z,5.65
2023-02-09T04:41:50.145Z,5.07
2023-02-09T04:44:19.574Z,5.68
2023-02-09T04:46:47.881Z,5.82
2023-02-09T04:49:16.201Z,5.35
2023-02-09T04:51:44.513Z,5.38
2023-02-09T04:54:12.929Z,5.27
2023-02-09T04:56:41.253Z,6.35
2023-02-09T04:59:27.591Z,5.88
2023-02-09T05:01:57.030Z,6.35
2023-02-09T05:04:25.363Z,6.50
2023-02-09T05:06:53.864Z,5.97
2023-02-09T05:09:22.360Z,5.75
2023-02-09T05:11:50.757Z,6.30
2023-02-09T05:14:19.147Z,6.22
2023-02-09T05:16:47.568Z,6.75
2023-02-09T05:19:17.084Z,6.90
2023-02-09T05:21:45.445Z,6.38
2023-02-09T05:24:15.753Z,6.43
2023-02-09T05:26:44.182Z,7.30
2023-02-09T05:29:15.377Z,6.55
2023-02-09T05:31:43.869Z,6.87
2023-02-09T05:34:12.314Z,7.97
2023-02-09T05:36:41.740Z,7.32
2023-02-09T05:39:10.310Z,8.88
2023-02-09T05:41:56.334Z,8.23
2023-02-09T05:44:24.842Z,7.80
2023-02-09T05:46:53.378Z,8.82
2023-02-09T05:49:21.813Z,8.95
2023-02-09T05:51:51.284Z,8.27
2023-02-09T05:54:19.929Z,8.40
2023-02-09T05:56:49.559Z,7.53
2023-02-09T05:59:21.168Z,8.80
2023-02-09T06:01:54.601Z,9.45
2023-02-09T06:04:28.520Z,8.63
2023-02-09T06:07:11.616Z,8.65
2023-02-09T06:09:41.817Z,7.63
2023-02-09T06:12:11.002Z,8.40
2023-02-09T06:14:40.554Z,9.85
2023-02-09T06:17:10.263Z,9.40
2023-02-09T06:19:39.461Z,9.70
2023-02-09T06:22:14.496Z,10.07
2023-02-09T06:24:47.485Z,8.70
2023-02-09T06:27:17.588Z,10.30
2023-02-09T06:29:46.619Z,9.38
2023-02-09T06:32:18.066Z,10.45
2023-02-09T06:34:52.780Z,10.20
2023-02-09T06:37:22.862Z,9.95
2023-02-09T06:39:51.671Z,10.60
2023-02-09T06:42:20.252Z,9.48
2023-02-09T06:44:49.131Z,9.98
2023-02-09T06:47:18.069Z,11.43
2023-02-09T06:49:47.050Z,10.25
2023-02-09T06:52:16.064Z,9.55
2023-02-09T06:54:46.075Z,9.48
2023-02-09T06:57:14.655Z,11.10
2023-02-09T06:59:43.246Z,12.20
2023-02-09T07:02:13.539Z,10.15
2023-02-09T07:04:42.363Z,9.88
2023-02-09T07:07:11.418Z,9.98
2023-02-09T07:09:43.421Z,10.48
2023-02-09T07:12:13.241Z,10.40
2023-02-09T07:14:41.868Z,10.25
2023-02-09T07:17:10.349Z,11.60
2023-02-09T07:19:41.601Z,10.02
2023-02-09T07:22:10.295Z,12.05
2023-02-09T07:24:38.916Z,11.03
2023-02-09T07:27:07.818Z,11.07
2023-02-09T07:29:37.782Z,11.07
2023-02-09T07:32:08.172Z,11.27
2023-02-09T07:34:37.156Z,12.23
2023-02-09T07:37:06.744Z,11.33
2023-02-09T07:39:35.379Z,11.10
2023-02-09T07:42:07.393Z,11.35
2023-02-09T07:45:03.494Z,58.25
2023-02-09T07:47:32.273Z,18.13
2023-02-09T07:50:03.787Z,11.03
2023-02-09T07:52:33.060Z,10.57
2023-02-09T07:55:02.430Z,12.25
2023-02-09T07:57:33.122Z,11.98
2023-02-09T08:00:03.296Z,11.75
2023-02-09T08:02:36.117Z,11.23
2023-02-09T08:05:08.331Z,10.93
2023-02-09T08:07:37.135Z,10.18
2023-02-09T08:10:05.860Z,10.10
2023-02-09T08:12:52.307Z,11.60
2023-02-09T08:15:22.794Z,11.13
2023-02-09T08:17:53.115Z,11.40
2023-02-09T08:20:26.722Z,11.25
2023-02-09T08:22:57.243Z,11.10
2023-02-09T08:25:26.231Z,10.88
2023-02-09T08:27:54.937Z,10.50
2023-02-09T08:30:24.469Z,12.60
2023-02-09T08:33:01.439Z,10.23
2023-02-09T08:35:30.798Z,11.40
2023-02-09T08:38:11.079Z,11.77
2023-02-09T08:40:41.419Z,12.03
2023-02-09T08:43:09.939Z,12.00
2023-02-09T08:45:40.181Z,11.52
2023-02-09T08:48:09.612Z,11.68
2023-02-09T08:50:37.993Z,12.02
2023-02-09T08:53:06.431Z,12.43
2023-02-09T08:55:38.277Z,12.90
2023-02-09T08:58:07.706Z,12.48
2023-02-09T09:00:36.006Z,12.60
2023-02-09T09:03:07.247Z,12.57
2023-02-09T09:05:36.016Z,13.03
2023-02-09T09:08:04.683Z,13.40
2023-02-09T09:10:33.243Z,13.20
2023-02-09T09:13:01.646Z,13.18
2023-02-09T09:15:29.998Z,12.98
2023-02-09T09:17:58.455Z,12.90
2023-02-09T09:20:28.401Z,13.32
2023-02-09T09:22:59.521Z,14.10
2023-02-09T09:25:27.981Z,12.20
2023-02-09T09:27:56.555Z,14.23
2023-02-09T09:30:24.882Z,13.20
2023-02-09T09:32:53.370Z,14.40
2023-02-09T09:35:21.983Z,15.73
2023-02-09T09:37:51.541Z,14.88
2023-02-09T09:40:22.323Z,13.85
2023-02-09T09:42:53.800Z,14.30
2023-02-09T09:45:25.716Z,14.20
2023-02-09T09:47:56.214Z,14.55
2023-02-09T09:50:27.569Z,15.80
2023-02-09T09:53:00.843Z,17.30
2023-02-09T09:55:31.493Z,15.43
2023-02-09T09:58:02.447Z,16.20
2023-02-09T10:00:37.638Z,15.98
2023-02-09T10:03:06.399Z,16.77
2023-02-09T10:05:40.950Z,15.25
2023-02-09T10:08:15.970Z,16.07
2023-02-09T10:10:49.120Z,15.75
2023-02-09T10:13:23.036Z,17.33
2023-02-09T10:15:52.902Z,15.82
2023-02-09T10:18:25.371Z,16.35
2023-02-09T10:21:07.345Z,16.70
2023-02-09T10:23:44.902Z,15.43
2023-02-09T10:26:24.472Z,17.17
2023-02-09T10:28:54.212Z,15.70
2023-02-09T10:31:26.514Z,15.18
2023-02-09T10:34:02.632Z,15.70
2023-02-09T10:36:33.997Z,16.10
2023-02-09T10:39:18.110Z,15.70
2023-02-09T10:41:49.229Z,15.75
2023-02-09T10:44:21.687Z,14.95
2023-02-09T10:46:50.281Z,16.23
2023-02-09T10:49:35.327Z,15.43
2023-02-09T10:52:15.965Z,15.45
2023-02-09T10:54:49.238Z,14.88
2023-02-09T10:57:29.325Z,15.77
2023-02-09T11:00:00.167Z,14.97
2023-02-09T11:02:38.276Z,15.80
2023-02-09T11:05:28.820Z,16.15
2023-02-09T11:08:06.728Z,15.50
2023-02-09T11:10:42.419Z,14.98
2023-02-09T11:13:19.310Z,15.47
2023-02-09T11:16:05.029Z,15.23
2023-02-09T11:18:35.216Z,15.02
2023-02-09T11:21:11.123Z,15.65
2023-02-09T11:23:45.825Z,15.90
2023-02-09T11:26:24.252Z,15.23
2023-02-09T11:29:00.364Z,15.45
2023-02-09T11:31:51.508Z,15.90
2023-02-09T11:34:41.584Z,14.98
2023-02-09T11:37:25.117Z,16.20
2023-02-09T11:39:59.137Z,15.90
2023-02-09T11:42:46.597Z,17.15
2023-02-09T11:45:23.463Z,16.15
2023-02-09T11:48:06.935Z,16.90
2023-02-09T11:50:45.159Z,15.98
2023-02-09T11:53:22.461Z,15.83
2023-02-09T11:55:56.337Z,16.67
2023-02-09T11:58:37.748Z,16.77
2023-02-09T12:01:16.360Z,17.33
2023-02-09T12:03:57.662Z,16.63
2023-02-09T12:06:26.588Z,17.30
2023-02-09T12:09:02.912Z,16.27
2023-02-09T12:11:51.969Z,17.52
2023-02-09T12:14:42.784Z,16.15
2023-02-09T12:17:15.691Z,16.70
2023-02-09T12:19:46.554Z,16.10
2023-02-09T12:22:43.954Z,15.93
2023-02-09T12:25:34.920Z,16.70
2023-02-09T12:28:42.310Z,16.15
2023-02-09T12:31:24.594Z,15.63
2023-02-09T12:34:14.353Z,16.30
2023-02-09T12:37:10.571Z,16.55
2023-02-09T12:39:39.310Z,17.27
2023-02-09T12:42:28.299Z,17.52
2023-02-09T12:44:59.236Z,16.95
2023-02-09T12:47:58.529Z,15.90
2023-02-09T12:50:44.537Z,17.35
2023-02-09T12:53:50.488Z,18.17
2023-02-09T12:56:34.652Z,17.55
2023-02-09T12:59:17.604Z,17.42
2023-02-09T13:02:23.959Z,17.50
2023-02-09T13:05:00.191Z,17.13
2023-02-09T13:07:38.798Z,16.92
2023-02-09T13:10:24.542Z,17.25
2023-02-09T13:12:59.739Z,17.05
2023-02-09T13:15:34.406Z,16.77
2023-02-09T13:18:10.161Z,16.45
2023-02-09T13:21:05.326Z,16.60
2023-02-09T13:23:46.215Z,16.33
2023-02-09T13:26:21.431Z,16.80
2023-02-09T13:28:49.966Z,15.47
2023-02-09T13:31:38.255Z,15.32
2023-02-09T13:34:19.963Z,17.30
2023-02-09T13:37:08.107Z,15.60
2023-02-09T13:39:39.726Z,15.80
2023-02-09T13:42:20.427Z,15.23
2023-02-09T13:44:56.375Z,15.95
2023-02-09T13:47:28.018Z,15.80
2023-02-09T13:50:02.141Z,15.57
2023-02-09T13:52:41.584Z,15.48
2023-02-09T13:55:12.719Z,16.40
2023-02-09T13:57:42.773Z,15.57
2023-02-09T14:00:22.892Z,15.07
2023-02-09T14:02:54.492Z,14.52
2023-02-09T14:05:31.317Z,15.30
2023-02-09T14:08:01.818Z,16.03
2023-02-09T14:10:31.251Z,14.95
2023-02-09T14:13:07.344Z,15.13
2023-02-09T14:15:57.750Z,15.77
2023-02-09T14:18:45.152Z,15.40
2023-02-09T14:21:19.802Z,15.50
2023-02-09T14:23:51.131Z,15.45
2023-02-09T14:26:24.330Z,15.07
2023-02-09T14:28:55.052Z,16.67
2023-02-09T14:31:25.029Z,16.17
2023-02-09T14:33:56.328Z,15.10
2023-02-09T14:36:30.204Z,15.85
2023-02-09T14:39:13.372Z,16.77
2023-02-09T14:41:41.986Z,15.68
2023-02-09T14:44:21.639Z,17.13
2023-02-09T14:46:52.155Z,16.07
2023-02-09T14:49:21.344Z,15.65
2023-02-09T14:51:51.099Z,15.25
2023-02-09T14:54:28.433Z,15.07
2023-02-09T14:56:58.799Z,15.80
2023-02-09T14:59:30.129Z,15.70
2023-02-09T15:01:58.564Z,15.52
2023-02-09T15:04:27.165Z,16.38
2023-02-09T15:07:02.434Z,15.43
2023-02-09T15:09:38.611Z,15.57
2023-02-09T15:12:08.229Z,15.80
2023-02-09T15:14:42.483Z,15.80
2023-02-09T15:17:15.895Z,15.60
2023-02-09T15:19:46.257Z,15.63
2023-02-09T15:22:16.277Z,16.88
2023-02-09T15:24:47.684Z,15.63
2023-02-09T15:27:26.957Z,16.33
2023-02-09T15:29:59.382Z,16.77
2023-02-09T15:32:28.915Z,16.70
2023-02-09T15:34:57.557Z,16.05
2023-02-09T15:37:28.962Z,16.67
2023-02-09T15:40:02.988Z,16.35
2023-02-09T15:42:49.232Z,15.05
2023-02-09T15:45:37.527Z,15.75
2023-02-09T15:48:07.163Z,15.77
2023-02-09T15:50:37.685Z,16.50
2023-02-09T15:53:09.630Z,17.20
2023-02-09T15:55:40.824Z,16.17
2023-02-09T15:58:14.694Z,16.05
2023-02-09T16:00:43.366Z,16.55
2023-02-09T16:03:15.854Z,16.30
2023-02-09T16:05:44.517Z,16.30
2023-02-09T16:08:20.654Z,16.92
2023-02-09T16:10:51.923Z,16.75
2023-02-09T16:13:21.081Z,17.00
2023-02-09T16:15:49.945Z,17.10
2023-02-09T16:18:18.537Z,17.83
2023-02-09T16:20:48.852Z,18.23
2023-02-09T16:23:21.345Z,18.67
2023-02-09T16:25:55.865Z,19.95
2023-02-09T16:28:26.076Z,18.03
2023-02-09T16:30:56.014Z,19.08
2023-02-09T16:33:26.561Z,20.33
2023-02-09T16:35:57.247Z,19.25
2023-02-09T16:38:35.656Z,18.90
2023-02-09T16:41:05.434Z,18.33
2023-02-09T16:43:34.111Z,19.23
2023-02-09T16:46:05.780Z,20.42
2023-02-09T16:48:35.720Z,19.77
2023-02-09T16:51:04.442Z,19.05
2023-02-09T16:53:37.938Z,19.27
2023-02-09T16:56:16.371Z,18.92
2023-02-09T16:58:48.631Z,19.95
2023-02-09T17:01:19.333Z,18.80
2023-02-09T17:03:49.817Z,19.25
2023-02-09T17:06:20.132Z,18.97
2023-02-09T17:08:50.051Z,20.10
2023-02-09T17:11:21.360Z,20.17
2023-02-09T17:13:50.141Z,19.65
2023-02-09T17:16:20.506Z,19.77
2023-02-09T17:18:52.148Z,19.47
2023-02-09T17:21:22.598Z,20.40
2023-02-09T17:23:51.377Z,21.42
2023-02-09T17:26:21.079Z,21.05
2023-02-09T17:28:50.354Z,20.70
2023-02-09T17:31:22.634Z,20.63
2023-02-09T17:33:52.951Z,21.27
2023-02-09T17:36:27.872Z,20.25
2023-02-09T17:39:00.867Z,19.75
2023-02-09T17:41:40.767Z,20.38
2023-02-09T17:44:28.910Z,20.17
2023-02-09T17:47:03.721Z,21.15
2023-02-09T17:49:33.300Z,21.25
2023-02-09T17:52:01.757Z,22.15
2023-02-09T17:54:32.502Z,20.95
2023-02-09T17:57:07.412Z,21.50
2023-02-09T17:59:35.932Z,23.77
2023-02-09T18:02:06.167Z,25.08
2023-02-09T18:04:34.617Z,24.60
2023-02-09T18:07:03.210Z,26.20
2023-02-09T18:09:31.735Z,23.90
2023-02-09T18:12:02.560Z,22.75
2023-02-09T18:14:34.701Z,24.02
2023-02-09T18:17:03.374Z,24.35
2023-02-09T18:19:33.094Z,87.03
2023-02-09T18:22:08.341Z,53.83
2023-02-09T18:24:37.021Z,29.50
2023-02-09T18:27:05.628Z,23.17
2023-02-09T18:29:37.590Z,21.35
2023-02-09T18:32:16.783Z,22.05
2023-02-09T18:34:45.497Z,22.63
2023-02-09T18:37:21.042Z,22.55
2023-02-09T18:39:49.460Z,21.63
2023-02-09T18:42:17.943Z,22.45
2023-02-09T18:44:54.415Z,21.63
2023-02-09T18:47:23.548Z,20.60
2023-02-09T18:49:52.244Z,22.00
2023-02-09T18:52:33.731Z,21.60
2023-02-09T18:55:04.571Z,21.25
2023-02-09T18:57:38.174Z,22.33
2023-02-09T19:00:09.738Z,21.10
2023-02-09T19:02:41.004Z,21.25
2023-02-09T19:05:12.035Z,22.27
2023-02-09T19:07:50.323Z,22.00
2023-02-09T19:10:20.926Z,22.42
2023-02-09T19:12:50.070Z,22.07
2023-02-09T19:15:22.448Z,22.40
2023-02-09T19:17:56.643Z,23.33
2023-02-09T19:20:29.056Z,22.17
2023-02-09T19:23:09.414Z,22.10
2023-02-09T19:25:44.403Z,21.53
2023-02-09T19:28:13.774Z,22.70
2023-02-09T19:30:43.661Z,23.90
2023-02-09T19:33:13.685Z,23.02
2023-02-09T19:35:42.844Z,24.13
2023-02-09T19:38:11.256Z,23.43
2023-02-09T19:40:42.265Z,23.88
2023-02-09T19:43:13.958Z,22.88
2023-02-09T19:45:43.428Z,24.15
2023-02-09T19:48:13.007Z,23.30
2023-02-09T19:50:43.645Z,22.90
2023-02-09T19:53:12.063Z,24.60
2023-02-09T19:55:40.448Z,23.95
2023-02-09T19:58:09.028Z,23.63
2023-02-09T20:00:37.502Z,24.15
2023-02-09T20:03:07.076Z,24.23
2023-02-09T20:05:46.585Z,23.73
2023-02-09T20:08:21.178Z,23.30
2023-02-09T20:10:49.859Z,24.95
2023-02-09T20:13:18.497Z,22.90
2023-02-09T20:15:50.462Z,24.20
2023-02-09T20:18:20.440Z,24.52
2023-02-09T20:20:58.845Z,25.60
2023-02-09T20:23:42.159Z,25.17
2023-02-09T20:26:19.526Z,25.67
2023-02-09T20:28:53.594Z,25.73
2023-02-09T20:31:27.601Z,26.10
2023-02-09T20:33:57.736Z,24.65
2023-02-09T20:36:28.894Z,24.45
2023-02-09T20:38:57.353Z,23.75
2023-02-09T20:41:25.932Z,24.73
2023-02-09T20:44:12.421Z,39.25
2023-02-09T20:46:58.937Z,46.20
2023-02-09T20:49:31.377Z,32.70
2023-02-09T20:52:00.188Z,35.67
2023-02-09T20:54:29.500Z,35.60
2023-02-09T20:57:01.142Z,39.15
2023-02-09T20:59:31.069Z,39.88
2023-02-09T21:01:59.825Z,31.00
2023-02-09T21:04:30.309Z,33.28
2023-02-09T21:07:00.391Z,32.23
2023-02-09T21:09:29.337Z,33.92
2023-02-09T21:11:58.794Z,34.17
2023-02-09T21:14:41.305Z,35.28
2023-02-09T21:17:11.104Z,35.55
2023-02-09T21:19:43.619Z,39.87
2023-02-09T21:22:12.061Z,34.80
2023-02-09T21:24:40.848Z,38.20
2023-02-09T21:27:09.349Z,37.53
2023-02-09T21:29:38.032Z,52.47
2023-02-09T21:32:08.058Z,37.00
2023-02-09T21:34:36.830Z,41.20
2023-02-09T21:37:10.160Z,50.28
2023-02-09T21:39:38.673Z,40.65
2023-02-09T21:42:24.870Z,34.90
2023-02-09T21:45:05.509Z,46.07
2023-02-09T21:47:37.251Z,62.25
2023-02-09T21:50:06.180Z,31.05
2023-02-09T21:52:35.826Z,31.50
2023-02-09T21:55:06.206Z,58.80
2023-02-09T21:57:34.630Z,48.93
2023-02-09T22:00:05.574Z,37.63
2023-02-09T22:02:34.172Z,29.98
2023-02-09T22:05:07.020Z,49.70
2023-02-09T22:07:37.150Z,32.10
2023-02-09T22:10:06.188Z,36.90
2023-02-09T22:12:39.291Z,29.02
2023-02-09T22:15:10.592Z,28.25
2023-02-09T22:17:39.390Z,33.28
2023-02-09T22:20:11.118Z,45.63
2023-02-09T22:22:40.876Z,31.30
2023-02-09T22:25:09.776Z,34.42
2023-02-09T22:27:38.122Z,53.42
2023-02-09T22:30:06.936Z,37.72
2023-02-09T22:32:35.304Z,27.67
2023-02-09T22:35:03.815Z,25.30
2023-02-09T22:37:33.516Z,25.27
2023-02-09T22:40:03.066Z,24.17
2023-02-09T22:42:31.670Z,24.10
2023-02-09T22:45:00.014Z,25.13
2023-02-09T22:47:28.420Z,25.80
2023-02-09T22:49:56.942Z,24.50
2023-02-09T22:52:25.411Z,25.10
2023-02-09T22:54:54.016Z,23.60
2023-02-09T22:57:23.536Z,25.00
2023-02-09T22:59:52.092Z,23.03
2023-02-09T23:02:20.698Z,24.20
2023-02-09T23:04:49.269Z,24.33
2023-02-09T23:07:19.968Z,22.33
2023-02-09T23:09:48.774Z,23.63
2023-02-09T23:12:20.794Z,24.27
2023-02-09T23:15:06.238Z,22.65
2023-02-09T23:18:03.799Z,23.85
2023-02-09T23:21:16.574Z,23.42
2023-02-09T23:24:03.783Z,24.77
2023-02-09T23:27:06.724Z,23.73
2023-02-09T23:30:06.470Z,23.30
2023-02-09T23:33:04.194Z,23.73
2023-02-09T23:36:03.596Z,23.10
2023-02-09T23:38:53.232Z,22.48
2023-02-09T23:45:32.500Z,21.73
2023-02-09T23:48:04.948Z,23.55
2023-02-09T23:50:33.392Z,23.55
2023-02-09T23:56:04.765Z,22.20
2023-02-09T23:58:40.378Z,22.35
